Time;durP1;ratioP1;P1;durP2;ratioP2;P2;SDS_P1;SDS_P2;PMS_P1;PMS_P2;Temp;Humidity;BMP_temperature;BMP_pressure;BME280_temperature;BME280_humidity;BME280_pressure;Samples;Min_cycle;Max_cycle;Signal;HPM_P1;HPM_P2
2024/01/25 00:00:06;;;;;;;9.00;2.17;;;6.40;99.90;;;;;;5056915;28;20587;-81
2024/01/25 00:02:53;;;;;;;10.13;2.30;;;6.40;99.90;;;;;;5054778;28;20203;-83
2024/01/25 00:05:41;;;;;;;8.87;1.80;;;6.40;99.90;;;;;;5041498;28;20369;-82
2024/01/25 00:08:29;;;;;;;8.20;1.73;;;6.40;99.90;;;;;;5043049;28;20192;-81
2024/01/25 00:11:16;;;;;;;7.37;1.67;;;6.40;99.90;;;;;;5040266;28;20676;-82
2024/01/25 00:14:05;;;;;;;8.07;1.73;;;6.50;99.90;;;;;;5041290;28;20755;-82
2024/01/25 00:16:52;;;;;;;4.30;1.30;;;6.40;99.90;;;;;;5041468;28;20596;-81
2024/01/25 00:19:41;;;;;;;6.73;1.50;;;6.40;99.90;;;;;;5043584;28;20191;-81
2024/01/25 00:22:29;;;;;;;7.27;1.73;;;6.40;99.90;;;;;;5056500;28;20649;-82
2024/01/25 00:25:16;;;;;;;5.30;1.23;;;6.40;99.90;;;;;;5054808;28;20266;-82
2024/01/25 00:28:04;;;;;;;4.87;1.40;;;6.40;99.90;;;;;;5055326;28;20348;-82
2024/01/25 00:30:52;;;;;;;5.57;1.40;;;6.30;99.90;;;;;;5055478;28;20197;-82
2024/01/25 00:33:39;;;;;;;5.53;1.37;;;6.30;99.90;;;;;;5041723;28;20581;-82
2024/01/25 00:36:27;;;;;;;4.20;1.20;;;6.20;99.90;;;;;;5055777;28;20296;-82
2024/01/25 00:39:15;;;;;;;4.87;1.10;;;6.20;99.90;;;;;;5054281;28;20196;-82
2024/01/25 00:42:05;;;;;;;6.90;1.57;;;6.20;99.90;;;;;;5040893;28;20224;-82
2024/01/25 00:44:53;;;;;;;4.47;1.30;;;6.10;99.90;;;;;;5040883;28;20191;-82
2024/01/25 00:47:40;;;;;;;4.00;1.40;;;6.10;99.90;;;;;;5040264;28;20566;-83
2024/01/25 00:50:28;;;;;;;3.60;1.40;;;6.10;99.90;;;;;;5040299;28;20200;-82
2024/01/25 00:53:16;;;;;;;7.00;1.80;;;6.00;99.90;;;;;;5053820;28;20605;-82
2024/01/25 00:56:05;;;;;;;7.67;2.10;;;6.00;99.90;;;;;;5053893;28;20218;-82
2024/01/25 00:58:52;;;;;;;8.83;2.00;;;5.90;99.90;;;;;;5055194;28;20196;-82
2024/01/25 01:01:42;;;;;;;12.97;2.27;;;6.00;99.90;;;;;;5039360;28;20721;-82
2024/01/25 01:04:30;;;;;;;10.80;2.40;;;6.00;99.90;;;;;;5039970;28;20751;-82
2024/01/25 01:07:32;;;;;;;12.57;2.97;;;5.90;99.90;;;;;;5053101;28;20249;-82
2024/01/25 01:10:20;;;;;;;7.80;2.20;;;5.90;99.90;;;;;;5038960;28;20199;-83
2024/01/25 01:13:08;;;;;;;7.93;2.43;;;5.90;99.90;;;;;;5054428;28;20220;-82
2024/01/25 01:15:56;;;;;;;11.13;2.50;;;5.80;99.90;;;;;;5054564;28;20198;-83
2024/01/25 01:18:43;;;;;;;14.33;3.50;;;5.80;99.90;;;;;;5038614;28;20205;-82
2024/01/25 01:21:33;;;;;;;7.60;2.13;;;5.80;99.90;;;;;;5039101;28;20217;-83
2024/01/25 01:24:21;;;;;;;6.30;2.47;;;5.80;99.90;;;;;;5053733;28;20195;-82
2024/01/25 01:27:08;;;;;;;12.20;2.20;;;5.80;99.90;;;;;;5039024;28;20349;-83
2024/01/25 01:29:56;;;;;;;13.80;2.67;;;5.80;99.90;;;;;;5053067;28;20569;-82
2024/01/25 01:32:43;;;;;;;12.20;2.33;;;5.80;99.90;;;;;;5054231;28;20202;-83
2024/01/25 01:35:31;;;;;;;12.17;2.30;;;5.80;99.90;;;;;;5053003;28;20199;-82
2024/01/25 01:38:19;;;;;;;14.67;2.77;;;5.80;99.90;;;;;;5038391;28;20303;-83
2024/01/25 01:41:07;;;;;;;7.03;2.03;;;5.90;99.90;;;;;;5053314;28;20705;-83
2024/01/25 01:43:54;;;;;;;10.30;2.37;;;5.80;99.90;;;;;;5052981;28;20199;-82
2024/01/25 01:46:42;;;;;;;14.10;2.80;;;5.80;99.90;;;;;;5039913;28;20656;-83
2024/01/25 01:49:30;;;;;;;13.17;2.63;;;5.80;99.90;;;;;;5052096;28;20364;-83
2024/01/25 01:52:19;;;;;;;9.13;2.43;;;5.80;99.90;;;;;;5053195;28;20229;-83
2024/01/25 01:55:07;;;;;;;10.03;2.40;;;5.80;99.90;;;;;;5052736;28;20219;-82
2024/01/25 01:57:55;;;;;;;10.73;3.10;;;5.80;99.90;;;;;;5038863;28;20215;-82
2024/01/25 02:00:45;;;;;;;8.67;2.20;;;5.80;99.90;;;;;;5053059;28;20709;-83
2024/01/25 02:03:33;;;;;;;13.17;2.43;;;5.80;99.90;;;;;;5039651;28;20230;-83
2024/01/25 02:06:23;;;;;;;12.37;2.00;;;5.80;99.90;;;;;;5038310;28;20612;-82
2024/01/25 02:09:10;;;;;;;16.57;2.97;;;5.80;99.90;;;;;;5052978;28;20576;-82
2024/01/25 02:12:04;;;;;;;14.70;2.43;;;5.80;99.90;;;;;;5052297;28;20341;-82
2024/01/25 02:14:52;;;;;;;16.97;2.90;;;5.80;99.90;;;;;;5053422;28;20619;-82
2024/01/25 02:17:40;;;;;;;12.97;3.10;;;5.90;99.90;;;;;;5038546;28;20571;-82
2024/01/25 02:20:27;;;;;;;8.73;2.00;;;5.90;99.90;;;;;;5052014;28;20819;-82
2024/01/25 02:23:15;;;;;;;11.53;2.30;;;5.90;99.90;;;;;;5038309;28;20198;-82
2024/01/25 02:26:03;;;;;;;11.10;2.50;;;5.90;99.90;;;;;;5051902;28;20639;-82
2024/01/25 02:28:50;;;;;;;13.87;2.47;;;5.90;99.90;;;;;;5038066;28;20281;-83
2024/01/25 02:31:41;;;;;;;14.23;2.57;;;5.80;99.90;;;;;;5039069;28;20202;-83
2024/01/25 02:34:29;;;;;;;13.67;2.67;;;5.70;99.90;;;;;;5051876;28;20200;-83
2024/01/25 02:37:17;;;;;;;14.00;2.53;;;5.60;99.90;;;;;;5039126;28;20197;-82
2024/01/25 02:40:05;;;;;;;13.03;3.30;;;5.60;99.90;;;;;;5037733;28;20714;-83
2024/01/25 02:42:53;;;;;;;13.07;2.40;;;5.50;99.90;;;;;;5038637;28;20298;-82
2024/01/25 02:45:41;;;;;;;12.87;2.57;;;5.40;99.90;;;;;;5052539;28;20196;-82
2024/01/25 02:48:28;;;;;;;14.30;2.60;;;5.50;99.90;;;;;;5051837;28;20817;-82
2024/01/25 02:51:16;;;;;;;10.83;2.20;;;5.50;99.90;;;;;;5051231;28;20203;-83
2024/01/25 02:54:03;;;;;;;9.33;2.10;;;5.50;99.90;;;;;;5038069;28;20244;-83
2024/01/25 02:56:51;;;;;;;17.10;2.90;;;5.40;99.90;;;;;;5037363;28;20238;-83
2024/01/25 02:59:38;;;;;;;9.60;2.33;;;5.40;99.90;;;;;;5051046;28;20273;-83
2024/01/25 03:02:26;;;;;;;13.73;2.40;;;5.40;99.90;;;;;;5052045;28;20214;-82
2024/01/25 03:05:13;;;;;;;10.63;2.23;;;5.40;99.90;;;;;;5037213;28;20262;-82
2024/01/25 03:08:01;;;;;;;13.13;2.60;;;5.40;99.90;;;;;;5051897;28;20191;-83
2024/01/25 03:10:49;;;;;;;11.83;2.67;;;5.40;99.90;;;;;;5036839;28;20198;-83
2024/01/25 03:13:36;;;;;;;15.77;2.37;;;5.30;99.90;;;;;;5051419;28;20274;-82
2024/01/25 03:16:24;;;;;;;13.47;2.80;;;5.20;99.90;;;;;;5052479;28;20201;-82
2024/01/25 03:19:12;;;;;;;16.17;2.57;;;5.20;99.90;;;;;;5040886;28;20190;-82
2024/01/25 03:22:01;;;;;;;15.77;2.87;;;5.10;99.90;;;;;;5042617;28;20221;-82
2024/01/25 03:24:49;;;;;;;16.00;2.60;;;5.10;99.90;;;;;;5056970;28;20199;-82
2024/01/25 03:27:37;;;;;;;14.03;2.90;;;5.00;99.90;;;;;;5056546;28;20214;-82
2024/01/25 03:30:25;;;;;;;11.53;2.60;;;5.00;99.90;;;;;;5055251;28;20274;-82
2024/01/25 03:33:12;;;;;;;11.07;2.50;;;5.00;99.90;;;;;;5042996;28;20195;-82
2024/01/25 03:36:04;;;;;;;9.33;2.17;;;5.00;99.90;;;;;;5055789;28;20191;-82
2024/01/25 03:38:51;;;;;;;14.23;2.53;;;4.90;99.90;;;;;;5056169;28;20195;-82
2024/01/25 03:41:38;;;;;;;11.57;2.73;;;5.00;99.90;;;;;;5055543;28;20233;-82
2024/01/25 03:44:26;;;;;;;13.30;2.37;;;4.90;99.90;;;;;;5054985;28;20194;-82
2024/01/25 03:47:13;;;;;;;11.83;3.13;;;4.90;99.90;;;;;;5055595;28;20640;-82
2024/01/25 03:50:01;;;;;;;14.67;2.70;;;5.00;99.90;;;;;;5055537;28;20236;-81
2024/01/25 03:52:49;;;;;;;9.93;2.60;;;5.00;99.90;;;;;;5041338;28;20195;-81
2024/01/25 03:55:36;;;;;;;13.00;2.80;;;4.90;99.90;;;;;;5055337;28;20202;-81
2024/01/25 03:58:24;;;;;;;16.63;3.20;;;4.90;99.90;;;;;;5055301;28;20642;-81
2024/01/25 04:01:11;;;;;;;12.37;2.83;;;4.90;99.90;;;;;;5055315;28;20215;-81
2024/01/25 04:04:00;;;;;;;12.20;2.50;;;4.90;99.90;;;;;;5041024;28;20588;-81
2024/01/25 04:06:48;;;;;;;11.57;2.57;;;5.00;99.90;;;;;;5054572;28;20195;-82
2024/01/25 04:09:35;;;;;;;14.73;2.57;;;5.00;99.90;;;;;;5055112;28;20195;-81
2024/01/25 04:12:24;;;;;;;15.90;2.97;;;4.90;99.90;;;;;;5055045;28;20211;-82
2024/01/25 04:15:12;;;;;;;13.33;2.33;;;4.90;99.90;;;;;;5055074;28;20195;-81
2024/01/25 04:17:59;;;;;;;18.40;2.87;;;4.90;99.90;;;;;;5055109;28;20195;-82
2024/01/25 04:20:47;;;;;;;13.13;2.80;;;4.90;99.90;;;;;;5040709;28;20277;-82
2024/01/25 04:23:35;;;;;;;16.00;2.47;;;4.90;99.90;;;;;;5054852;28;20248;-82
2024/01/25 04:26:22;;;;;;;17.83;2.80;;;4.90;99.90;;;;;;5039394;28;20218;-82
2024/01/25 04:29:10;;;;;;;12.50;2.67;;;4.90;99.90;;;;;;5053967;28;20586;-81
2024/01/25 04:31:57;;;;;;;13.07;2.73;;;4.90;99.90;;;;;;5054784;28;20204;-82
2024/01/25 04:34:47;;;;;;;16.70;3.13;;;4.90;99.90;;;;;;5040646;28;20195;-81
2024/01/25 04:37:36;;;;;;;11.83;2.53;;;4.90;99.90;;;;;;5054828;28;20324;-82
2024/01/25 04:40:23;;;;;;;15.77;2.63;;;4.90;99.90;;;;;;5039887;28;20325;-82
2024/01/25 04:43:11;;;;;;;13.70;2.90;;;4.90;99.90;;;;;;5053836;28;20245;-82
2024/01/25 04:45:59;;;;;;;11.23;2.80;;;4.90;99.90;;;;;;5054060;28;20211;-82
2024/01/25 04:48:47;;;;;;;13.47;2.60;;;4.90;99.90;;;;;;5053110;28;20545;-83
2024/01/25 04:51:36;;;;;;;12.40;3.20;;;4.90;99.90;;;;;;5040247;28;20694;-83
2024/01/25 04:54:23;;;;;;;19.43;5.60;;;4.90;99.90;;;;;;5040297;28;20202;-83
2024/01/25 04:57:10;;;;;;;11.30;3.07;;;4.90;99.90;;;;;;5054228;28;20630;-82
2024/01/25 04:59:58;;;;;;;12.33;3.00;;;4.90;99.90;;;;;;5053183;28;20197;-82
2024/01/25 05:02:46;;;;;;;15.27;2.43;;;4.90;99.90;;;;;;5039398;28;20215;-83
2024/01/25 05:05:33;;;;;;;8.70;2.57;;;4.90;99.90;;;;;;5053334;28;20224;-82
2024/01/25 05:08:21;;;;;;;10.63;3.20;;;4.90;99.90;;;;;;5040178;28;20198;-83
2024/01/25 05:11:08;;;;;;;9.33;3.70;;;4.90;99.90;;;;;;5053989;28;20287;-82
2024/01/25 05:13:56;;;;;;;18.70;6.40;;;5.00;99.90;;;;;;5053527;28;20565;-82
2024/01/25 05:16:44;;;;;;;20.60;7.63;;;4.90;99.90;;;;;;5054069;28;20200;-82
2024/01/25 05:19:31;;;;;;;17.93;5.60;;;4.90;99.90;;;;;;5040251;28;20195;-82
2024/01/25 05:22:21;;;;;;;20.17;5.77;;;5.00;99.90;;;;;;5040326;28;20299;-82
2024/01/25 05:25:09;;;;;;;26.80;7.53;;;5.00;99.90;;;;;;5039061;28;20207;-83
2024/01/25 05:27:57;;;;;;;30.77;8.27;;;5.00;99.90;;;;;;5053051;28;20324;-82
2024/01/25 05:30:45;;;;;;;26.77;8.93;;;5.00;99.90;;;;;;5039002;28;20241;-83
2024/01/25 05:33:32;;;;;;;27.27;8.80;;;5.00;99.90;;;;;;5053629;28;20660;-83
2024/01/25 05:36:21;;;;;;;24.93;8.57;;;5.00;99.90;;;;;;5053652;28;20285;-82
2024/01/25 05:39:09;;;;;;;25.73;7.87;;;5.10;99.90;;;;;;5052277;28;20561;-83
2024/01/25 05:41:57;;;;;;;21.67;6.93;;;5.20;99.90;;;;;;5050718;28;20218;-82
2024/01/25 05:44:45;;;;;;;24.43;6.73;;;5.10;99.90;;;;;;5052884;28;20284;-83
2024/01/25 05:47:32;;;;;;;22.97;6.43;;;5.10;99.90;;;;;;5052200;28;20223;-83
2024/01/25 05:50:20;;;;;;;18.73;4.83;;;5.10;99.90;;;;;;5039092;28;20213;-83
2024/01/25 05:53:08;;;;;;;22.90;5.90;;;5.10;99.90;;;;;;5052669;28;20199;-82
2024/01/25 05:55:57;;;;;;;17.77;4.97;;;5.20;99.90;;;;;;5038428;28;20199;-83
2024/01/25 05:58:44;;;;;;;21.73;4.80;;;5.20;99.90;;;;;;5039042;28;20783;-83
2024/01/25 06:01:32;;;;;;;18.70;4.67;;;5.20;99.90;;;;;;5052957;28;20264;-83
2024/01/25 06:04:20;;;;;;;14.83;4.20;;;5.20;99.90;;;;;;5039015;28;20236;-82
2024/01/25 06:07:08;;;;;;;23.10;6.20;;;5.20;99.90;;;;;;5052002;28;20197;-83
2024/01/25 06:09:55;;;;;;;21.37;6.43;;;5.20;99.90;;;;;;5039356;28;20206;-83
2024/01/25 06:12:43;;;;;;;23.10;5.63;;;5.20;99.90;;;;;;5052269;28;20342;-82
2024/01/25 06:15:31;;;;;;;31.90;9.10;;;5.20;99.90;;;;;;5053317;28;20210;-82
2024/01/25 06:18:19;;;;;;;29.43;8.90;;;5.20;99.90;;;;;;5053259;28;20191;-83
2024/01/25 06:21:09;;;;;;;26.33;7.13;;;5.20;99.90;;;;;;5037404;28;20203;-82
2024/01/25 06:23:57;;;;;;;19.20;5.73;;;5.20;99.90;;;;;;5053087;28;20637;-83
2024/01/25 06:26:45;;;;;;;22.90;5.70;;;5.20;99.90;;;;;;5052537;28;20222;-83
2024/01/25 06:29:32;;;;;;;21.03;4.67;;;5.20;99.90;;;;;;5050633;28;20653;-82
2024/01/25 06:32:20;;;;;;;14.27;3.73;;;5.20;99.90;;;;;;5051470;28;20191;-82
2024/01/25 06:35:14;;;;;;;12.37;3.33;;;5.20;99.90;;;;;;5051846;28;20208;-83
2024/01/25 06:38:01;;;;;;;15.27;3.90;;;5.20;99.90;;;;;;5051749;28;20225;-82
2024/01/25 06:40:49;;;;;;;14.03;3.43;;;5.20;99.90;;;;;;5052500;28;20201;-82
2024/01/25 06:43:37;;;;;;;17.73;4.30;;;5.20;99.90;;;;;;5038011;28;20191;-82
2024/01/25 06:46:24;;;;;;;15.67;3.67;;;5.20;99.90;;;;;;5037154;28;20231;-83
2024/01/25 06:49:12;;;;;;;24.70;5.83;;;5.30;99.90;;;;;;5038073;28;20191;-83
2024/01/25 06:52:00;;;;;;;16.87;4.40;;;5.30;99.90;;;;;;5037567;28;20229;-82
2024/01/25 06:54:48;;;;;;;15.77;4.70;;;5.30;99.90;;;;;;5038719;28;20196;-83
2024/01/25 06:57:35;;;;;;;23.07;5.30;;;5.20;99.90;;;;;;5036833;28;20679;-83
2024/01/25 07:00:23;;;;;;;16.43;5.27;;;5.20;99.90;;;;;;5052423;28;20666;-83
2024/01/25 07:03:11;;;;;;;20.07;5.00;;;5.10;99.90;;;;;;5052574;28;20302;-83
2024/01/25 07:05:59;;;;;;;14.30;4.27;;;5.10;99.90;;;;;;5051633;28;20230;-83
2024/01/25 07:08:47;;;;;;;13.83;4.07;;;5.00;99.90;;;;;;5038444;28;20286;-83
2024/01/25 07:11:35;;;;;;;13.53;4.20;;;5.00;99.90;;;;;;5052513;28;20216;-82
2024/01/25 07:14:22;;;;;;;16.70;4.63;;;5.00;99.90;;;;;;5051518;28;20240;-82
2024/01/25 07:17:10;;;;;;;21.83;4.93;;;4.90;99.90;;;;;;5053579;28;20199;-81
2024/01/25 07:19:58;;;;;;;16.60;4.40;;;4.90;99.90;;;;;;5051983;28;20195;-81
2024/01/25 07:22:45;;;;;;;15.40;3.90;;;4.80;99.90;;;;;;5051302;28;20214;-82
2024/01/25 07:25:33;;;;;;;16.43;3.50;;;4.90;99.90;;;;;;5051911;28;20191;-85
2024/01/25 07:28:22;;;;;;;11.00;3.53;;;4.80;99.90;;;;;;5037281;28;20196;-87
2024/01/25 07:31:09;;;;;;;18.07;4.50;;;4.90;99.90;;;;;;5052221;28;20237;-82
2024/01/25 07:33:57;;;;;;;20.27;5.53;;;4.80;99.90;;;;;;5050390;28;20422;-82
2024/01/25 07:36:44;;;;;;;17.03;4.77;;;4.80;99.90;;;;;;5051865;28;20199;-82
2024/01/25 07:39:32;;;;;;;14.50;4.33;;;4.80;99.90;;;;;;5037535;28;20269;-83
2024/01/25 07:42:20;;;;;;;12.70;4.03;;;4.70;99.90;;;;;;5051703;28;20229;-82
2024/01/25 07:45:08;;;;;;;13.87;4.13;;;4.80;99.90;;;;;;5037610;28;20207;-81
2024/01/25 07:47:55;;;;;;;12.10;3.40;;;4.80;99.90;;;;;;5051615;28;20678;-81
2024/01/25 07:50:55;;;;;;;14.10;3.50;;;4.80;99.90;;;;;;5051608;28;20194;-82
2024/01/25 07:53:42;;;;;;;13.60;3.00;;;4.80;99.90;;;;;;5051618;28;20210;-82
2024/01/25 07:56:29;;;;;;;13.30;2.83;;;4.80;99.90;;;;;;5051548;28;20578;-82
2024/01/25 07:59:18;;;;;;;13.50;3.83;;;4.80;99.90;;;;;;5052201;28;20265;-81
2024/01/25 08:02:06;;;;;;;8.17;3.30;;;4.80;99.90;;;;;;5037146;28;20215;-85
2024/01/25 08:04:53;;;;;;;12.17;3.50;;;4.80;99.90;;;;;;5037426;28;20313;-84
2024/01/25 08:07:41;;;;;;;8.90;2.80;;;4.80;99.90;;;;;;5040592;28;20210;-83
2024/01/25 08:10:28;;;;;;;10.37;3.40;;;4.80;99.90;;;;;;5055675;28;20208;-84
2024/01/25 08:13:16;;;;;;;10.30;3.17;;;4.80;99.90;;;;;;5040923;28;20298;-85
2024/01/25 08:16:04;;;;;;;13.27;2.97;;;4.80;99.90;;;;;;5039270;28;20636;-84
2024/01/25 08:18:51;;;;;;;9.00;3.23;;;4.80;99.90;;;;;;5054937;28;20217;-84
2024/01/25 08:21:39;;;;;;;10.57;2.73;;;4.80;99.90;;;;;;5054240;28;20279;-79
2024/01/25 08:24:26;;;;;;;8.83;2.73;;;4.80;99.90;;;;;;5055618;28;20213;-79
2024/01/25 08:27:14;;;;;;;8.90;2.73;;;4.80;99.90;;;;;;5054176;28;20336;-78
2024/01/25 08:30:03;;;;;;;8.77;2.40;;;4.80;99.90;;;;;;5055390;28;20207;-78
2024/01/25 08:32:51;;;;;;;10.10;2.90;;;4.80;99.90;;;;;;5055357;28;20714;-79
2024/01/25 08:35:40;;;;;;;10.17;2.40;;;4.70;99.90;;;;;;5054788;28;20672;-79
2024/01/25 08:38:28;;;;;;;7.10;2.40;;;4.80;99.90;;;;;;5055249;28;20198;-79
2024/01/25 08:41:16;;;;;;;5.43;2.30;;;4.80;99.90;;;;;;5054509;28;20343;-79
2024/01/25 08:44:04;;;;;;;5.97;1.93;;;4.80;99.90;;;;;;5055766;28;20697;-79
2024/01/25 08:46:51;;;;;;;5.50;2.00;;;4.80;99.90;;;;;;5053117;28;20194;-79
2024/01/25 08:49:38;;;;;;;7.00;2.10;;;4.90;99.90;;;;;;5054842;28;20273;-78
2024/01/25 08:52:26;;;;;;;6.07;1.97;;;4.90;99.90;;;;;;5054382;28;20589;-79
2024/01/25 08:55:22;;;;;;;4.47;2.13;;;5.00;99.90;;;;;;5054797;28;20285;-78
2024/01/25 08:58:10;;;;;;;4.43;2.00;;;4.90;99.90;;;;;;5054953;28;20302;-78
2024/01/25 09:00:57;;;;;;;5.87;2.10;;;4.90;99.90;;;;;;5039589;28;20222;-78
2024/01/25 09:03:45;;;;;;;5.87;2.07;;;4.90;99.90;;;;;;5053935;28;20218;-79
2024/01/25 09:06:32;;;;;;;5.73;2.00;;;4.90;99.90;;;;;;5054645;28;20272;-78
2024/01/25 09:09:20;;;;;;;5.63;1.80;;;4.90;99.90;;;;;;5054637;28;20198;-78
2024/01/25 09:12:11;;;;;;;6.20;2.00;;;4.90;99.90;;;;;;5054624;28;20561;-78
2024/01/25 09:14:58;;;;;;;4.33;2.00;;;4.90;99.90;;;;;;5053931;28;20213;-78
2024/01/25 09:17:45;;;;;;;3.00;2.03;;;4.90;99.90;;;;;;5054314;28;20663;-78
2024/01/25 09:20:33;;;;;;;6.57;2.20;;;4.90;99.90;;;;;;5054365;28;20790;-78
2024/01/25 09:23:21;;;;;;;4.47;2.20;;;4.90;99.90;;;;;;5053730;28;20221;-78
2024/01/25 09:26:08;;;;;;;4.30;2.10;;;4.90;99.90;;;;;;5038301;28;20577;-78
2024/01/25 09:28:56;;;;;;;5.30;2.17;;;4.90;99.90;;;;;;5053780;28;20229;-79
2024/01/25 09:31:43;;;;;;;5.50;2.63;;;4.90;99.90;;;;;;5054295;28;20219;-79
2024/01/25 09:34:31;;;;;;;6.70;2.50;;;4.90;99.90;;;;;;5052889;28;20608;-78
2024/01/25 09:37:23;;;;;;;6.33;2.60;;;5.00;99.90;;;;;;5039596;28;20208;-79
2024/01/25 09:40:11;;;;;;;3.87;2.60;;;5.00;99.90;;;;;;5052874;28;20194;-80
2024/01/25 09:42:59;;;;;;;8.50;3.03;;;5.00;99.90;;;;;;5053365;28;20277;-80
2024/01/25 09:45:52;;;;;;;5.40;2.60;;;4.90;99.90;;;;;;5053409;28;20543;-78
2024/01/25 09:48:40;;;;;;;4.07;2.40;;;4.90;99.90;;;;;;5052190;28;20287;-79
2024/01/25 09:51:38;;;;;;;5.10;3.00;;;4.90;99.90;;;;;;5053205;28;20192;-79
2024/01/25 09:54:26;;;;;;;5.57;3.10;;;4.90;99.90;;;;;;5038628;28;20191;-79
2024/01/25 09:57:22;;;;;;;7.00;2.77;;;5.00;99.90;;;;;;5052695;28;20265;-82
2024/01/25 10:00:11;;;;;;;5.77;2.83;;;5.00;99.90;;;;;;5052436;28;20228;-82
2024/01/25 10:02:59;;;;;;;8.53;3.33;;;5.00;99.90;;;;;;5052254;28;20211;-82
2024/01/25 10:05:47;;;;;;;4.07;2.40;;;5.10;99.90;;;;;;5055465;28;20242;-80
2024/01/25 10:08:35;;;;;;;4.97;2.93;;;5.00;99.90;;;;;;5039405;28;20558;-80
2024/01/25 10:11:24;;;;;;;4.53;2.53;;;5.00;99.90;;;;;;5051731;28;20229;-83
2024/01/25 10:14:12;;;;;;;3.40;2.50;;;5.10;99.90;;;;;;5052818;28;20460;-82
2024/01/25 10:17:01;;;;;;;4.83;2.83;;;5.10;99.90;;;;;;5039181;28;20232;-82
2024/01/25 10:19:48;;;;;;;5.13;2.50;;;5.10;99.90;;;;;;5052572;28;20195;-82
2024/01/25 10:22:37;;;;;;;3.40;2.40;;;5.10;99.90;;;;;;5053505;28;20238;-82
2024/01/25 10:25:25;;;;;;;8.07;3.37;;;5.10;99.90;;;;;;5052028;28;20191;-82
2024/01/25 10:28:13;;;;;;;4.10;2.30;;;5.10;99.90;;;;;;5051379;28;20365;-82
2024/01/25 10:31:04;;;;;;;4.47;2.60;;;5.10;99.90;;;;;;5053107;28;20683;-82
2024/01/25 10:33:53;;;;;;;5.63;2.53;;;5.10;99.90;;;;;;5051437;28;20297;-82
2024/01/25 10:36:42;;;;;;;3.07;2.10;;;5.10;99.90;;;;;;5051221;28;20195;-81
2024/01/25 10:39:31;;;;;;;3.70;2.33;;;5.20;99.90;;;;;;5051847;28;20198;-82
2024/01/25 10:42:19;;;;;;;2.97;2.30;;;5.10;99.90;;;;;;5051762;28;20225;-82
2024/01/25 10:45:07;;;;;;;3.57;1.90;;;5.20;99.90;;;;;;5036810;28;20205;-82
2024/01/25 10:47:56;;;;;;;3.40;2.03;;;5.20;99.90;;;;;;5038457;28;20201;-83
2024/01/25 10:50:46;;;;;;;4.20;2.10;;;5.30;99.90;;;;;;5052892;28;20195;-81
2024/01/25 10:53:35;;;;;;;4.20;2.10;;;5.30;99.90;;;;;;5052387;28;20195;-81
2024/01/25 10:56:23;;;;;;;2.77;2.00;;;5.30;99.90;;;;;;5051960;28;20214;-82
2024/01/25 10:59:11;;;;;;;2.90;1.90;;;5.30;99.90;;;;;;5052693;28;20288;-83
2024/01/25 11:02:01;;;;;;;3.93;1.87;;;5.30;99.90;;;;;;5037842;28;20572;-83
2024/01/25 11:04:55;;;;;;;2.70;1.83;;;5.40;99.90;;;;;;5051901;28;20234;-82
2024/01/25 11:07:47;;;;;;;3.70;1.87;;;5.40;99.90;;;;;;5037018;28;20192;-83
2024/01/25 11:10:37;;;;;;;2.77;1.70;;;5.40;99.90;;;;;;5052541;28;20206;-83
2024/01/25 11:13:27;;;;;;;2.53;1.70;;;5.40;99.90;;;;;;5051950;28;20202;-82
2024/01/25 11:16:18;;;;;;;3.13;2.10;;;5.50;99.90;;;;;;5052223;28;20277;-82
2024/01/25 11:19:06;;;;;;;3.37;2.20;;;5.50;99.90;;;;;;5051812;28;20191;-84
2024/01/25 11:21:53;;;;;;;3.67;1.83;;;5.50;99.90;;;;;;5051941;28;20210;-84
2024/01/25 11:24:42;;;;;;;2.83;1.87;;;5.50;99.90;;;;;;5037599;28;20221;-83
2024/01/25 11:27:29;;;;;;;4.70;2.07;;;5.60;99.90;;;;;;5050744;28;20230;-83
2024/01/25 11:30:19;;;;;;;3.20;1.80;;;5.60;99.90;;;;;;5037130;28;20195;-83
2024/01/25 11:33:07;;;;;;;3.17;1.80;;;5.70;99.90;;;;;;5051858;28;20198;-83
2024/01/25 11:35:55;;;;;;;5.30;1.70;;;5.70;99.90;;;;;;5051253;28;20204;-83
2024/01/25 11:38:43;;;;;;;5.30;1.70;;;5.60;99.90;;;;;;5038381;28;20275;-82
2024/01/25 11:41:33;;;;;;;4.23;1.87;;;5.60;99.90;;;;;;5041062;28;20257;-82
2024/01/25 11:44:24;;;;;;;3.77;1.60;;;5.60;99.90;;;;;;5041566;28;20220;-83
2024/01/25 11:47:11;;;;;;;8.03;2.30;;;5.60;99.90;;;;;;5055726;28;20672;-83
2024/01/25 11:49:59;;;;;;;2.63;1.90;;;5.50;99.90;;;;;;5055591;28;20192;-83
2024/01/25 11:52:46;;;;;;;2.87;1.70;;;5.60;99.90;;;;;;5054925;28;20210;-83
2024/01/25 11:55:34;;;;;;;3.37;1.70;;;5.50;99.90;;;;;;5042043;28;20203;-84
2024/01/25 11:58:22;;;;;;;3.77;1.60;;;5.60;99.90;;;;;;5056014;28;20443;-83
2024/01/25 12:01:09;;;;;;;3.77;1.80;;;5.60;99.90;;;;;;5041991;28;20620;-83
2024/01/25 12:03:57;;;;;;;1.90;1.60;;;5.60;99.90;;;;;;5055143;28;20499;-82
2024/01/25 12:06:47;;;;;;;4.47;1.80;;;5.70;99.90;;;;;;5054690;28;20201;-84
2024/01/25 12:09:35;;;;;;;3.47;1.90;;;5.70;99.90;;;;;;5054158;28;20195;-83
2024/01/25 12:12:22;;;;;;;3.50;1.80;;;5.70;99.90;;;;;;5056508;28;20357;-83
2024/01/25 12:15:10;;;;;;;2.57;1.70;;;5.60;99.90;;;;;;5055876;28;20282;-83
2024/01/25 12:17:58;;;;;;;3.57;2.20;;;5.70;99.90;;;;;;5055128;28;20681;-83
2024/01/25 12:20:46;;;;;;;3.83;2.27;;;5.70;99.90;;;;;;5055819;28;20197;-83
2024/01/25 12:23:35;;;;;;;5.80;2.20;;;5.70;99.90;;;;;;5053855;28;20232;-83
2024/01/25 12:26:22;;;;;;;6.50;2.13;;;5.60;99.90;;;;;;5055503;28;20249;-83
2024/01/25 12:29:10;;;;;;;5.07;2.10;;;5.60;99.90;;;;;;5039914;28;20190;-82
2024/01/25 12:31:58;;;;;;;5.03;2.17;;;5.50;99.90;;;;;;5057963;28;20191;-83
2024/01/25 12:35:00;;;;;;;4.73;2.20;;;5.50;99.90;;;;;;5054688;28;20289;-84
2024/01/25 12:37:48;;;;;;;5.07;2.10;;;5.40;99.90;;;;;;5054093;28;20762;-83
2024/01/25 12:40:36;;;;;;;6.17;2.40;;;5.30;99.90;;;;;;5053623;28;20198;-82
2024/01/25 12:43:24;;;;;;;5.23;2.73;;;5.30;99.90;;;;;;5054584;28;20238;-82
2024/01/25 12:46:13;;;;;;;6.63;2.73;;;5.20;99.90;;;;;;5054406;28;20206;-82
2024/01/25 12:49:13;;;;;;;7.67;2.83;;;5.20;99.90;;;;;;5042846;28;20199;-82
2024/01/25 12:52:00;;;;;;;3.47;2.27;;;5.20;99.90;;;;;;5054664;28;20278;-81
2024/01/25 12:54:48;;;;;;;1.40;1.30;;;5.10;99.90;;;;;;5038956;28;20197;-82
2024/01/25 12:57:35;;;;;;;2.27;1.40;;;4.90;99.90;;;;;;5054587;28;20212;-82
2024/01/25 13:00:23;;;;;;;3.10;1.80;;;4.80;99.90;;;;;;5054148;28;20187;-82
2024/01/25 13:03:11;;;;;;;3.83;1.43;;;4.70;99.90;;;;;;5040089;28;20225;-82
2024/01/25 13:05:59;;;;;;;2.87;1.40;;;4.50;99.90;;;;;;5054810;28;20794;-82
2024/01/25 13:08:47;;;;;;;2.13;1.50;;;4.40;99.90;;;;;;5054960;28;20199;-81
2024/01/25 13:11:35;;;;;;;2.80;1.53;;;4.30;99.90;;;;;;5054892;28;20222;-81
2024/01/25 13:14:22;;;;;;;2.37;1.70;;;4.30;99.90;;;;;;5040839;28;20714;-82
2024/01/25 13:17:09;;;;;;;2.47;1.70;;;4.20;99.90;;;;;;5054429;28;20203;-82
2024/01/25 13:19:59;;;;;;;2.10;1.57;;;4.10;99.90;;;;;;5054364;28;20195;-83
2024/01/25 13:22:47;;;;;;;2.30;1.70;;;4.10;99.90;;;;;;5039831;28;20199;-83
2024/01/25 13:25:34;;;;;;;2.27;1.57;;;4.00;99.90;;;;;;5053576;28;20201;-82
2024/01/25 13:28:21;;;;;;;2.53;1.73;;;3.90;99.90;;;;;;5054012;28;20237;-82
2024/01/25 13:31:09;;;;;;;3.20;1.80;;;3.90;99.90;;;;;;5052985;28;20269;-82
2024/01/25 13:33:56;;;;;;;3.60;2.00;;;3.90;99.90;;;;;;5054995;28;20215;-81
2024/01/25 13:36:44;;;;;;;3.20;1.87;;;3.90;99.90;;;;;;5040017;28;20276;-81
2024/01/25 13:39:32;;;;;;;2.93;2.10;;;3.90;99.90;;;;;;5038768;28;20195;-81
2024/01/25 13:42:19;;;;;;;3.40;2.10;;;3.90;99.90;;;;;;5052893;28;20710;-82
2024/01/25 13:45:07;;;;;;;2.77;1.90;;;3.90;99.90;;;;;;5052069;28;20340;-83
2024/01/25 13:47:54;;;;;;;2.90;2.20;;;3.90;99.90;;;;;;5038750;28;20195;-83
2024/01/25 13:50:42;;;;;;;2.63;1.97;;;3.80;99.90;;;;;;5054359;28;20693;-83
2024/01/25 13:53:29;;;;;;;2.50;2.00;;;3.80;99.90;;;;;;5039232;28;20674;-83
2024/01/25 13:56:17;;;;;;;4.00;2.20;;;3.80;99.90;;;;;;5054136;28;20213;-82
2024/01/25 13:59:05;;;;;;;2.73;1.70;;;3.80;99.90;;;;;;5051988;28;20201;-82
2024/01/25 14:01:52;;;;;;;2.77;1.90;;;3.80;99.90;;;;;;5053064;28;20273;-82
2024/01/25 14:04:40;;;;;;;2.60;2.03;;;3.80;99.90;;;;;;5053467;28;20235;-82
2024/01/25 14:07:27;;;;;;;2.40;1.70;;;3.70;99.90;;;;;;5054309;28;20622;-83
2024/01/25 14:10:15;;;;;;;2.40;1.90;;;3.70;99.90;;;;;;5053894;28;20201;-83
2024/01/25 14:13:03;;;;;;;3.30;2.30;;;3.70;99.90;;;;;;5052958;28;20686;-83
2024/01/25 14:15:51;;;;;;;4.83;1.97;;;3.80;99.90;;;;;;5052958;28;20741;-83
2024/01/25 14:18:39;;;;;;;3.17;2.03;;;3.90;99.90;;;;;;5053446;28;20206;-83
2024/01/25 14:21:27;;;;;;;2.20;1.90;;;3.80;99.90;;;;;;5052855;28;20734;-84
2024/01/25 14:24:15;;;;;;;3.23;2.13;;;3.70;99.90;;;;;;5038644;28;20227;-84
2024/01/25 14:27:02;;;;;;;4.90;2.00;;;3.60;99.90;;;;;;5052754;28;20584;-83
2024/01/25 14:29:50;;;;;;;2.67;2.00;;;3.60;99.90;;;;;;5053318;28;20286;-81
2024/01/25 14:32:39;;;;;;;3.30;2.10;;;3.50;99.90;;;;;;5039338;28;20648;-83
2024/01/25 14:35:28;;;;;;;4.53;2.30;;;3.50;99.90;;;;;;5037998;28;20197;-82
2024/01/25 14:38:16;;;;;;;2.83;2.17;;;3.50;99.90;;;;;;5052667;28;20190;-83
2024/01/25 14:41:03;;;;;;;4.73;2.30;;;3.50;99.90;;;;;;5052812;28;20591;-83